createdAt,value
2022-11-05T00:00:02.826Z,8.1
2022-11-05T00:20:02.316Z,8.1
2022-11-05T00:40:02.841Z,8.1
2022-11-05T01:00:02.246Z,8
2022-11-05T01:20:02.643Z,8
2022-11-05T01:40:03.064Z,7.9
2022-11-05T02:00:03.056Z,8
2022-11-05T02:20:02.718Z,8
2022-11-05T02:40:03.191Z,7.8
2022-11-05T03:00:02.931Z,7.8
2022-11-05T03:20:02.543Z,7.8
2022-11-05T03:40:03.076Z,7.6
2022-11-05T04:00:02.735Z,7.6
2022-11-05T04:20:02.838Z,7.4
2022-11-05T04:40:02.386Z,7.2
2022-11-05T05:00:02.864Z,7.1
2022-11-05T05:20:02.941Z,6.9
2022-11-05T05:40:02.608Z,6.9
2022-11-05T06:00:03.270Z,6.7
2022-11-05T06:20:02.754Z,6.7
2022-11-05T06:40:03.124Z,6.8
2022-11-05T07:00:07.445Z,6.6
2022-11-05T07:20:02.993Z,6.6
2022-11-05T07:40:02.440Z,6.7
2022-11-05T08:00:02.967Z,6.8
2022-11-05T08:20:03.022Z,7.1
2022-11-05T08:40:02.993Z,7.7
2022-11-05T09:00:02.475Z,8.1
2022-11-05T09:20:03.481Z,8.4
2022-11-05T09:40:02.988Z,8.4
2022-11-05T10:00:02.495Z,9
2022-11-05T10:20:02.327Z,10.3
2022-11-05T10:40:02.963Z,10.7
2022-11-05T11:00:02.452Z,11.4
2022-11-05T11:20:02.781Z,11.7
2022-11-05T11:40:02.413Z,11.7
2022-11-05T12:00:08.580Z,11.8
2022-11-05T12:20:02.490Z,11.9
2022-11-05T12:40:02.964Z,11.2
2022-11-05T13:00:02.471Z,10.8
2022-11-05T13:20:02.358Z,11.1
2022-11-05T13:40:02.928Z,10.8
2022-11-05T14:00:02.362Z,10.7
2022-11-05T14:20:02.404Z,10.6
2022-11-05T14:40:03.399Z,10.1
2022-11-05T15:00:02.981Z,9.8
2022-11-05T15:20:03.909Z,9.6
2022-11-05T15:40:03.753Z,9.1
2022-11-05T16:00:03.936Z,8.5
2022-11-05T16:20:03.929Z,8
2022-11-05T16:40:02.834Z,7.5
2022-11-05T17:00:02.806Z,7.1
2022-11-05T17:20:02.455Z,6.7
2022-11-05T17:40:02.839Z,6.4
2022-11-05T18:00:03.302Z,6.3
2022-11-05T18:20:03.715Z,6.1
2022-11-05T18:40:02.320Z,6
2022-11-05T19:00:02.926Z,5.7
2022-11-05T19:20:02.826Z,5.5
2022-11-05T19:40:03.459Z,5.2
2022-11-05T20:00:02.250Z,4.9
2022-11-05T20:20:05.116Z,4.6
2022-11-05T20:40:05.235Z,4.3
2022-11-05T21:00:04.151Z,4.1
2022-11-05T21:20:04.698Z,3.8
2022-11-05T21:40:03.427Z,3.5
2022-11-05T22:00:04.277Z,3.3
2022-11-05T22:20:03.702Z,3.3
2022-11-05T22:40:03.546Z,3.1
2022-11-05T23:00:04.495Z,3
2022-11-05T23:20:03.499Z,2.9
2022-11-05T23:40:02.941Z,2.9
